sensor_id;sensor_type;location;lat;lon;timestamp;P1;P2;P0
80643;PMS5003;70010;60.224;24.712;2023-12-29T00:00:01;7;5;
80643;PMS5003;70010;60.224;24.712;2023-12-29T00:02:26;6;5;
80643;PMS5003;70010;60.224;24.712;2023-12-29T00:04:51;6;5;
80643;PMS5003;70010;60.224;24.712;2023-12-29T00:07:17;6;6;
80643;PMS5003;70010;60.224;24.712;2023-12-29T00:09:42;6;5;
80643;PMS5003;70010;60.224;24.712;2023-12-29T00:12:07;5;5;
80643;PMS5003;70010;60.224;24.712;2023-12-29T00:14:33;5;5;
80643;PMS5003;70010;60.224;24.712;2023-12-29T00:16:59;6;5;
80643;PMS5003;70010;60.224;24.712;2023-12-29T00:19:24;7;4;
80643;PMS5003;70010;60.224;24.712;2023-12-29T00:21:49;5;5;
80643;PMS5003;70010;60.224;24.712;2023-12-29T00:24:15;4;4;
80643;PMS5003;70010;60.224;24.712;2023-12-29T00:26:40;5;4;
80643;PMS5003;70010;60.224;24.712;2023-12-29T00:29:06;9;5;
80643;PMS5003;70010;60.224;24.712;2023-12-29T00:31:32;6;6;
80643;PMS5003;70010;60.224;24.712;2023-12-29T00:33:57;5;4;
80643;PMS5003;70010;60.224;24.712;2023-12-29T00:36:23;5;4;
80643;PMS5003;70010;60.224;24.712;2023-12-29T00:38:48;7;6;
80643;PMS5003;70010;60.224;24.712;2023-12-29T00:41:14;7;5;
80643;PMS5003;70010;60.224;24.712;2023-12-29T00:43:39;6;6;
80643;PMS5003;70010;60.224;24.712;2023-12-29T00:46:04;5;4;
80643;PMS5003;70010;60.224;24.712;2023-12-29T00:48:30;4;4;
80643;PMS5003;70010;60.224;24.712;2023-12-29T00:50:55;6;6;
80643;PMS5003;70010;60.224;24.712;2023-12-29T00:53:20;6;5;
80643;PMS5003;70010;60.224;24.712;2023-12-29T00:55:46;10;8;
80643;PMS5003;70010;60.224;24.712;2023-12-29T00:58:11;6;6;
80643;PMS5003;70010;60.224;24.712;2023-12-29T01:00:36;6;6;
80643;PMS5003;70010;60.224;24.712;2023-12-29T01:03:02;6;5;
80643;PMS5003;70010;60.224;24.712;2023-12-29T01:05:27;6;6;
80643;PMS5003;70010;60.224;24.712;2023-12-29T01:07:52;5;5;
80643;PMS5003;70010;60.224;24.712;2023-12-29T01:10:17;5;5;
80643;PMS5003;70010;60.224;24.712;2023-12-29T01:12:43;8;6;
80643;PMS5003;70010;60.224;24.712;2023-12-29T01:15:08;4;4;
80643;PMS5003;70010;60.224;24.712;2023-12-29T01:17:34;4;4;
80643;PMS5003;70010;60.224;24.712;2023-12-29T01:19:59;6;6;
80643;PMS5003;70010;60.224;24.712;2023-12-29T01:22:24;5;4;
80643;PMS5003;70010;60.224;24.712;2023-12-29T01:24:50;4;4;
80643;PMS5003;70010;60.224;24.712;2023-12-29T01:27:15;5;4;
80643;PMS5003;70010;60.224;24.712;2023-12-29T01:29:40;6;5;
80643;PMS5003;70010;60.224;24.712;2023-12-29T01:32:06;7;5;
80643;PMS5003;70010;60.224;24.712;2023-12-29T01:34:31;5;4;
80643;PMS5003;70010;60.224;24.712;2023-12-29T01:36:57;4;4;
80643;PMS5003;70010;60.224;24.712;2023-12-29T01:39:22;4;2;
80643;PMS5003;70010;60.224;24.712;2023-12-29T01:41:47;5;5;
80643;PMS5003;70010;60.224;24.712;2023-12-29T01:44:17;3;3;
80643;PMS5003;70010;60.224;24.712;2023-12-29T01:46:38;4;4;
80643;PMS5003;70010;60.224;24.712;2023-12-29T01:49:03;4;4;
80643;PMS5003;70010;60.224;24.712;2023-12-29T01:51:29;10;7;
80643;PMS5003;70010;60.224;24.712;2023-12-29T01:53:54;5;4;
80643;PMS5003;70010;60.224;24.712;2023-12-29T01:56:19;5;4;
80643;PMS5003;70010;60.224;24.712;2023-12-29T01:58:45;4;4;
80643;PMS5003;70010;60.224;24.712;2023-12-29T02:01:09;6;5;
80643;PMS5003;70010;60.224;24.712;2023-12-29T02:03:35;5;4;
80643;PMS5003;70010;60.224;24.712;2023-12-29T02:06:00;6;5;
80643;PMS5003;70010;60.224;24.712;2023-12-29T02:08:25;4;4;
80643;PMS5003;70010;60.224;24.712;2023-12-29T02:10:51;4;4;
80643;PMS5003;70010;60.224;24.712;2023-12-29T02:13:16;4;4;
80643;PMS5003;70010;60.224;24.712;2023-12-29T02:15:42;5;5;
80643;PMS5003;70010;60.224;24.712;2023-12-29T02:18:07;4;4;
80643;PMS5003;70010;60.224;24.712;2023-12-29T02:20:32;6;6;
80643;PMS5003;70010;60.224;24.712;2023-12-29T02:22:58;4;4;
80643;PMS5003;70010;60.224;24.712;2023-12-29T02:25:23;5;3;
80643;PMS5003;70010;60.224;24.712;2023-12-29T02:27:49;5;4;
80643;PMS5003;70010;60.224;24.712;2023-12-29T02:30:15;4;4;
80643;PMS5003;70010;60.224;24.712;2023-12-29T02:32:40;6;5;
80643;PMS5003;70010;60.224;24.712;2023-12-29T02:35:05;4;3;
80643;PMS5003;70010;60.224;24.712;2023-12-29T02:37:30;5;5;
80643;PMS5003;70010;60.224;24.712;2023-12-29T02:39:56;6;3;
80643;PMS5003;70010;60.224;24.712;2023-12-29T02:42:20;5;5;
80643;PMS5003;70010;60.224;24.712;2023-12-29T02:44:46;3;3;
80643;PMS5003;70010;60.224;24.712;2023-12-29T02:47:11;5;5;
80643;PMS5003;70010;60.224;24.712;2023-12-29T02:49:36;5;5;
80643;PMS5003;70010;60.224;24.712;2023-12-29T02:52:02;5;4;
80643;PMS5003;70010;60.224;24.712;2023-12-29T02:54:27;4;4;
80643;PMS5003;70010;60.224;24.712;2023-12-29T02:56:52;5;4;
80643;PMS5003;70010;60.224;24.712;2023-12-29T02:59:18;5;3;
80643;PMS5003;70010;60.224;24.712;2023-12-29T03:01:43;7;5;
80643;PMS5003;70010;60.224;24.712;2023-12-29T03:04:09;5;4;
80643;PMS5003;70010;60.224;24.712;2023-12-29T03:06:34;7;6;
80643;PMS5003;70010;60.224;24.712;2023-12-29T03:08:59;4;4;
80643;PMS5003;70010;60.224;24.712;2023-12-29T03:11:25;7;6;
80643;PMS5003;70010;60.224;24.712;2023-12-29T03:13:50;5;5;
80643;PMS5003;70010;60.224;24.712;2023-12-29T03:16:15;6;6;
80643;PMS5003;70010;60.224;24.712;2023-12-29T03:18:41;7;4;
80643;PMS5003;70010;60.224;24.712;2023-12-29T03:21:06;5;5;
80643;PMS5003;70010;60.224;24.712;2023-12-29T03:23:32;5;5;
80643;PMS5003;70010;60.224;24.712;2023-12-29T03:25:57;8;6;
80643;PMS5003;70010;60.224;24.712;2023-12-29T03:28:22;6;5;
80643;PMS5003;70010;60.224;24.712;2023-12-29T03:30:48;5;5;
80643;PMS5003;70010;60.224;24.712;2023-12-29T03:33:14;5;4;
80643;PMS5003;70010;60.224;24.712;2023-12-29T03:35:38;8;5;
80643;PMS5003;70010;60.224;24.712;2023-12-29T03:38:04;10;7;
80643;PMS5003;70010;60.224;24.712;2023-12-29T03:40:29;6;5;
80643;PMS5003;70010;60.224;24.712;2023-12-29T03:42:54;7;6;
80643;PMS5003;70010;60.224;24.712;2023-12-29T03:45:20;5;5;
80643;PMS5003;70010;60.224;24.712;2023-12-29T03:47:45;6;5;
80643;PMS5003;70010;60.224;24.712;2023-12-29T03:50:11;5;5;
80643;PMS5003;70010;60.224;24.712;2023-12-29T03:52:36;6;5;
80643;PMS5003;70010;60.224;24.712;2023-12-29T03:55:01;5;5;
80643;PMS5003;70010;60.224;24.712;2023-12-29T03:57:27;8;8;
80643;PMS5003;70010;60.224;24.712;2023-12-29T03:59:52;7;6;
80643;PMS5003;70010;60.224;24.712;2023-12-29T04:02:17;8;8;
80643;PMS5003;70010;60.224;24.712;2023-12-29T04:04:43;12;8;
80643;PMS5003;70010;60.224;24.712;2023-12-29T04:07:08;6;6;
80643;PMS5003;70010;60.224;24.712;2023-12-29T04:09:33;6;6;
80643;PMS5003;70010;60.224;24.712;2023-12-29T04:11:58;7;6;
80643;PMS5003;70010;60.224;24.712;2023-12-29T04:14:24;8;6;
80643;PMS5003;70010;60.224;24.712;2023-12-29T04:16:49;6;6;
80643;PMS5003;70010;60.224;24.712;2023-12-29T04:19:14;6;6;
80643;PMS5003;70010;60.224;24.712;2023-12-29T04:21:40;6;6;
80643;PMS5003;70010;60.224;24.712;2023-12-29T04:24:05;8;7;
80643;PMS5003;70010;60.224;24.712;2023-12-29T04:26:34;5;5;
80643;PMS5003;70010;60.224;24.712;2023-12-29T04:28:56;7;6;
80643;PMS5003;70010;60.224;24.712;2023-12-29T04:31:21;9;9;
80643;PMS5003;70010;60.224;24.712;2023-12-29T04:33:46;7;6;
80643;PMS5003;70010;60.224;24.712;2023-12-29T04:36:12;7;7;
80643;PMS5003;70010;60.224;24.712;2023-12-29T04:38:37;5;5;
80643;PMS5003;70010;60.224;24.712;2023-12-29T04:41:03;5;5;
80643;PMS5003;70010;60.224;24.712;2023-12-29T04:43:28;7;6;
80643;PMS5003;70010;60.224;24.712;2023-12-29T04:45:53;8;7;
80643;PMS5003;70010;60.224;24.712;2023-12-29T04:48:19;7;7;
80643;PMS5003;70010;60.224;24.712;2023-12-29T04:50:44;7;5;
80643;PMS5003;70010;60.224;24.712;2023-12-29T04:53:10;6;5;
80643;PMS5003;70010;60.224;24.712;2023-12-29T04:55:35;5;4;
80643;PMS5003;70010;60.224;24.712;2023-12-29T04:58:00;6;6;
80643;PMS5003;70010;60.224;24.712;2023-12-29T05:00:26;5;4;
80643;PMS5003;70010;60.224;24.712;2023-12-29T05:02:51;6;6;
80643;PMS5003;70010;60.224;24.712;2023-12-29T05:05:17;6;6;
80643;PMS5003;70010;60.224;24.712;2023-12-29T05:07:42;4;4;
80643;PMS5003;70010;60.224;24.712;2023-12-29T05:10:08;8;5;
80643;PMS5003;70010;60.224;24.712;2023-12-29T05:12:33;6;6;
80643;PMS5003;70010;60.224;24.712;2023-12-29T05:14:58;8;7;
80643;PMS5003;70010;60.224;24.712;2023-12-29T05:17:23;6;6;
80643;PMS5003;70010;60.224;24.712;2023-12-29T05:19:48;6;6;
80643;PMS5003;70010;60.224;24.712;2023-12-29T05:22:14;9;7;
80643;PMS5003;70010;60.224;24.712;2023-12-29T05:24:39;6;6;
80643;PMS5003;70010;60.224;24.712;2023-12-29T05:27:04;11;8;
80643;PMS5003;70010;60.224;24.712;2023-12-29T05:29:30;6;5;
80643;PMS5003;70010;60.224;24.712;2023-12-29T05:31:55;8;8;
80643;PMS5003;70010;60.224;24.712;2023-12-29T05:34:20;10;8;
80643;PMS5003;70010;60.224;24.712;2023-12-29T05:36:46;8;7;
80643;PMS5003;70010;60.224;24.712;2023-12-29T05:39:11;7;7;
80643;PMS5003;70010;60.224;24.712;2023-12-29T05:41:36;8;8;
80643;PMS5003;70010;60.224;24.712;2023-12-29T05:44:02;9;9;
80643;PMS5003;70010;60.224;24.712;2023-12-29T05:46:27;9;8;
80643;PMS5003;70010;60.224;24.712;2023-12-29T05:48:52;9;7;
80643;PMS5003;70010;60.224;24.712;2023-12-29T05:51:18;9;9;
80643;PMS5003;70010;60.224;24.712;2023-12-29T05:53:43;10;10;
80643;PMS5003;70010;60.224;24.712;2023-12-29T05:56:09;10;7;
80643;PMS5003;70010;60.224;24.712;2023-12-29T05:58:33;8;7;
80643;PMS5003;70010;60.224;24.712;2023-12-29T06:00:58;10;7;
80643;PMS5003;70010;60.224;24.712;2023-12-29T06:03:24;10;8;
80643;PMS5003;70010;60.224;24.712;2023-12-29T06:05:49;9;9;
80643;PMS5003;70010;60.224;24.712;2023-12-29T06:08:15;12;9;
80643;PMS5003;70010;60.224;24.712;2023-12-29T06:10:40;12;11;
80643;PMS5003;70010;60.224;24.712;2023-12-29T06:13:05;8;8;
80643;PMS5003;70010;60.224;24.712;2023-12-29T06:15:30;7;6;
80643;PMS5003;70010;60.224;24.712;2023-12-29T06:17:56;9;8;
80643;PMS5003;70010;60.224;24.712;2023-12-29T06:20:21;12;9;
80643;PMS5003;70010;60.224;24.712;2023-12-29T06:22:47;10;10;
80643;PMS5003;70010;60.224;24.712;2023-12-29T06:25:12;10;7;
80643;PMS5003;70010;60.224;24.712;2023-12-29T06:27:37;12;9;
80643;PMS5003;70010;60.224;24.712;2023-12-29T06:30:02;9;9;
80643;PMS5003;70010;60.224;24.712;2023-12-29T06:32:28;9;9;
80643;PMS5003;70010;60.224;24.712;2023-12-29T06:34:53;10;9;
80643;PMS5003;70010;60.224;24.712;2023-12-29T06:37:18;10;10;
80643;PMS5003;70010;60.224;24.712;2023-12-29T06:39:44;10;9;
80643;PMS5003;70010;60.224;24.712;2023-12-29T06:42:09;7;7;
80643;PMS5003;70010;60.224;24.712;2023-12-29T06:44:34;9;9;
80643;PMS5003;70010;60.224;24.712;2023-12-29T06:47:00;10;10;
80643;PMS5003;70010;60.224;24.712;2023-12-29T06:49:25;12;10;
80643;PMS5003;70010;60.224;24.712;2023-12-29T06:51:51;9;9;
80643;PMS5003;70010;60.224;24.712;2023-12-29T06:54:16;9;9;
80643;PMS5003;70010;60.224;24.712;2023-12-29T06:56:41;11;11;
80643;PMS5003;70010;60.224;24.712;2023-12-29T06:59:06;15;12;
80643;PMS5003;70010;60.224;24.712;2023-12-29T07:01:32;10;10;
80643;PMS5003;70010;60.224;24.712;2023-12-29T07:03:57;8;8;
80643;PMS5003;70010;60.224;24.712;2023-12-29T07:06:22;14;11;
80643;PMS5003;70010;60.224;24.712;2023-12-29T07:08:48;9;9;
80643;PMS5003;70010;60.224;24.712;2023-12-29T07:11:14;15;13;
80643;PMS5003;70010;60.224;24.712;2023-12-29T07:13:39;10;10;
80643;PMS5003;70010;60.224;24.712;2023-12-29T07:16:05;12;11;
80643;PMS5003;70010;60.224;24.712;2023-12-29T07:18:30;12;11;
80643;PMS5003;70010;60.224;24.712;2023-12-29T07:20:55;9;8;
80643;PMS5003;70010;60.224;24.712;2023-12-29T07:23:21;8;8;
80643;PMS5003;70010;60.224;24.712;2023-12-29T07:25:47;12;11;
80643;PMS5003;70010;60.224;24.712;2023-12-29T07:28:11;14;10;
80643;PMS5003;70010;60.224;24.712;2023-12-29T07:30:36;11;11;
80643;PMS5003;70010;60.224;24.712;2023-12-29T07:33:01;10;10;
80643;PMS5003;70010;60.224;24.712;2023-12-29T07:35:27;8;8;
80643;PMS5003;70010;60.224;24.712;2023-12-29T07:37:52;11;11;
80643;PMS5003;70010;60.224;24.712;2023-12-29T07:40:17;13;13;
80643;PMS5003;70010;60.224;24.712;2023-12-29T07:42:43;11;10;
80643;PMS5003;70010;60.224;24.712;2023-12-29T07:45:08;13;12;
80643;PMS5003;70010;60.224;24.712;2023-12-29T07:47:33;13;10;
80643;PMS5003;70010;60.224;24.712;2023-12-29T07:49:58;13;10;
80643;PMS5003;70010;60.224;24.712;2023-12-29T07:52:24;26;16;
80643;PMS5003;70010;60.224;24.712;2023-12-29T07:54:49;17;10;
80643;PMS5003;70010;60.224;24.712;2023-12-29T07:57:14;22;15;
80643;PMS5003;70010;60.224;24.712;2023-12-29T07:59:39;17;10;
80643;PMS5003;70010;60.224;24.712;2023-12-29T08:02:05;11;11;
80643;PMS5003;70010;60.224;24.712;2023-12-29T08:04:30;10;9;
80643;PMS5003;70010;60.224;24.712;2023-12-29T08:06:56;13;11;
80643;PMS5003;70010;60.224;24.712;2023-12-29T08:09:21;18;10;
80643;PMS5003;70010;60.224;24.712;2023-12-29T08:11:46;11;11;
80643;PMS5003;70010;60.224;24.712;2023-12-29T08:14:11;9;9;
80643;PMS5003;70010;60.224;24.712;2023-12-29T08:16:37;10;10;
80643;PMS5003;70010;60.224;24.712;2023-12-29T08:19:02;10;10;
80643;PMS5003;70010;60.224;24.712;2023-12-29T08:21:27;10;10;
80643;PMS5003;70010;60.224;24.712;2023-12-29T08:23:52;11;9;
80643;PMS5003;70010;60.224;24.712;2023-12-29T08:26:18;13;12;
80643;PMS5003;70010;60.224;24.712;2023-12-29T08:28:43;12;9;
80643;PMS5003;70010;60.224;24.712;2023-12-29T08:31:08;11;10;
80643;PMS5003;70010;60.224;24.712;2023-12-29T08:33:33;12;12;
80643;PMS5003;70010;60.224;24.712;2023-12-29T08:35:58;11;10;
80643;PMS5003;70010;60.224;24.712;2023-12-29T08:38:24;13;13;
80643;PMS5003;70010;60.224;24.712;2023-12-29T08:40:49;13;10;
80643;PMS5003;70010;60.224;24.712;2023-12-29T08:43:15;9;9;
80643;PMS5003;70010;60.224;24.712;2023-12-29T08:45:40;13;11;
80643;PMS5003;70010;60.224;24.712;2023-12-29T08:48:05;13;13;
80643;PMS5003;70010;60.224;24.712;2023-12-29T08:50:30;14;13;
80643;PMS5003;70010;60.224;24.712;2023-12-29T08:52:55;16;10;
80643;PMS5003;70010;60.224;24.712;2023-12-29T08:55:21;16;16;
80643;PMS5003;70010;60.224;24.712;2023-12-29T08:57:46;12;12;
80643;PMS5003;70010;60.224;24.712;2023-12-29T09:00:11;13;12;
80643;PMS5003;70010;60.224;24.712;2023-12-29T09:02:36;10;10;
80643;PMS5003;70010;60.224;24.712;2023-12-29T09:05:02;11;11;
80643;PMS5003;70010;60.224;24.712;2023-12-29T09:07:27;11;11;
80643;PMS5003;70010;60.224;24.712;2023-12-29T09:09:52;13;12;
80643;PMS5003;70010;60.224;24.712;2023-12-29T09:12:18;12;10;
80643;PMS5003;70010;60.224;24.712;2023-12-29T09:14:43;13;9;
80643;PMS5003;70010;60.224;24.712;2023-12-29T09:17:08;13;11;
80643;PMS5003;70010;60.224;24.712;2023-12-29T09:19:34;13;11;
80643;PMS5003;70010;60.224;24.712;2023-12-29T09:21:59;11;10;
80643;PMS5003;70010;60.224;24.712;2023-12-29T09:24:24;15;11;
80643;PMS5003;70010;60.224;24.712;2023-12-29T09:26:49;11;8;
80643;PMS5003;70010;60.224;24.712;2023-12-29T09:29:15;14;11;
80643;PMS5003;70010;60.224;24.712;2023-12-29T09:31:40;10;10;
80643;PMS5003;70010;60.224;24.712;2023-12-29T09:34:06;11;10;
80643;PMS5003;70010;60.224;24.712;2023-12-29T09:36:31;11;11;
80643;PMS5003;70010;60.224;24.712;2023-12-29T09:38:56;12;11;
80643;PMS5003;70010;60.224;24.712;2023-12-29T09:41:23;16;11;
80643;PMS5003;70010;60.224;24.712;2023-12-29T09:43:48;16;9;
80643;PMS5003;70010;60.224;24.712;2023-12-29T09:46:13;16;12;
80643;PMS5003;70010;60.224;24.712;2023-12-29T09:48:38;14;10;
80643;PMS5003;70010;60.224;24.712;2023-12-29T09:51:04;9;9;
80643;PMS5003;70010;60.224;24.712;2023-12-29T09:53:29;10;9;
80643;PMS5003;70010;60.224;24.712;2023-12-29T09:55:54;10;10;
80643;PMS5003;70010;60.224;24.712;2023-12-29T09:58:20;14;12;
80643;PMS5003;70010;60.224;24.712;2023-12-29T10:00:46;15;12;
80643;PMS5003;70010;60.224;24.712;2023-12-29T10:03:10;9;9;
80643;PMS5003;70010;60.224;24.712;2023-12-29T10:05:35;14;11;
80643;PMS5003;70010;60.224;24.712;2023-12-29T10:08:01;11;9;
80643;PMS5003;70010;60.224;24.712;2023-12-29T10:10:26;10;10;
80643;PMS5003;70010;60.224;24.712;2023-12-29T10:12:51;12;11;
80643;PMS5003;70010;60.224;24.712;2023-12-29T10:15:19;12;11;
80643;PMS5003;70010;60.224;24.712;2023-12-29T10:17:43;11;10;
80643;PMS5003;70010;60.224;24.712;2023-12-29T10:20:08;12;11;
80643;PMS5003;70010;60.224;24.712;2023-12-29T10:22:34;10;10;
80643;PMS5003;70010;60.224;24.712;2023-12-29T10:24:58;14;10;
80643;PMS5003;70010;60.224;24.712;2023-12-29T10:27:23;12;11;
80643;PMS5003;70010;60.224;24.712;2023-12-29T10:29:49;10;10;
80643;PMS5003;70010;60.224;24.712;2023-12-29T10:32:14;10;8;
80643;PMS5003;70010;60.224;24.712;2023-12-29T10:34:40;11;10;
80643;PMS5003;70010;60.224;24.712;2023-12-29T10:37:05;13;12;
80643;PMS5003;70010;60.224;24.712;2023-12-29T10:39:31;11;11;
80643;PMS5003;70010;60.224;24.712;2023-12-29T10:44:21;10;9;
80643;PMS5003;70010;60.224;24.712;2023-12-29T10:46:47;12;10;
80643;PMS5003;70010;60.224;24.712;2023-12-29T10:49:12;12;10;
80643;PMS5003;70010;60.224;24.712;2023-12-29T10:51:37;19;11;
80643;PMS5003;70010;60.224;24.712;2023-12-29T10:54:03;8;8;
80643;PMS5003;70010;60.224;24.712;2023-12-29T10:56:28;10;10;
80643;PMS5003;70010;60.224;24.712;2023-12-29T11:01:18;9;9;
80643;PMS5003;70010;60.224;24.712;2023-12-29T11:03:44;9;9;
80643;PMS5003;70010;60.224;24.712;2023-12-29T11:06:09;6;6;
80643;PMS5003;70010;60.224;24.712;2023-12-29T11:08:35;10;10;
80643;PMS5003;70010;60.224;24.712;2023-12-29T11:11:00;11;10;
80643;PMS5003;70010;60.224;24.712;2023-12-29T11:13:25;12;9;
80643;PMS5003;70010;60.224;24.712;2023-12-29T11:15:50;11;11;
80643;PMS5003;70010;60.224;24.712;2023-12-29T11:18:16;8;8;
80643;PMS5003;70010;60.224;24.712;2023-12-29T11:20:41;14;11;
80643;PMS5003;70010;60.224;24.712;2023-12-29T11:23:06;11;10;
80643;PMS5003;70010;60.224;24.712;2023-12-29T11:25:31;9;9;
80643;PMS5003;70010;60.224;24.712;2023-12-29T11:27:56;11;8;
80643;PMS5003;70010;60.224;24.712;2023-12-29T11:30:22;10;9;
80643;PMS5003;70010;60.224;24.712;2023-12-29T11:32:49;9;9;
80643;PMS5003;70010;60.224;24.712;2023-12-29T11:35:13;8;8;
80643;PMS5003;70010;60.224;24.712;2023-12-29T11:37:44;9;7;
80643;PMS5003;70010;60.224;24.712;2023-12-29T11:40:09;13;9;
80643;PMS5003;70010;60.224;24.712;2023-12-29T11:42:31;7;7;
80643;PMS5003;70010;60.224;24.712;2023-12-29T11:44:54;12;9;
80643;PMS5003;70010;60.224;24.712;2023-12-29T11:52:10;10;9;
80643;PMS5003;70010;60.224;24.712;2023-12-29T11:54:36;9;7;
80643;PMS5003;70010;60.224;24.712;2023-12-29T11:57:01;8;8;
80643;PMS5003;70010;60.224;24.712;2023-12-29T11:59:26;6;6;
80643;PMS5003;70010;60.224;24.712;2023-12-29T12:01:52;6;5;
80643;PMS5003;70010;60.224;24.712;2023-12-29T12:06:42;7;7;
80643;PMS5003;70010;60.224;24.712;2023-12-29T12:13:58;7;7;
80643;PMS5003;70010;60.224;24.712;2023-12-29T12:18:49;7;5;
80643;PMS5003;70010;60.224;24.712;2023-12-29T12:21:14;5;5;
80643;PMS5003;70010;60.224;24.712;2023-12-29T12:23:39;6;6;
80643;PMS5003;70010;60.224;24.712;2023-12-29T12:26:05;9;7;
80643;PMS5003;70010;60.224;24.712;2023-12-29T12:28:30;10;7;
80643;PMS5003;70010;60.224;24.712;2023-12-29T12:33:21;5;5;
80643;PMS5003;70010;60.224;24.712;2023-12-29T12:35:46;8;7;
80643;PMS5003;70010;60.224;24.712;2023-12-29T12:38:12;7;6;
80643;PMS5003;70010;60.224;24.712;2023-12-29T12:40:37;6;6;
80643;PMS5003;70010;60.224;24.712;2023-12-29T12:43:02;9;9;
80643;PMS5003;70010;60.224;24.712;2023-12-29T12:45:28;7;7;
80643;PMS5003;70010;60.224;24.712;2023-12-29T12:47:54;5;5;
80643;PMS5003;70010;60.224;24.712;2023-12-29T12:50:19;6;6;
80643;PMS5003;70010;60.224;24.712;2023-12-29T12:52:45;7;7;
80643;PMS5003;70010;60.224;24.712;2023-12-29T12:55:10;11;8;
80643;PMS5003;70010;60.224;24.712;2023-12-29T12:57:36;8;7;
80643;PMS5003;70010;60.224;24.712;2023-12-29T13:00:02;8;7;
80643;PMS5003;70010;60.224;24.712;2023-12-29T13:02:27;12;7;
80643;PMS5003;70010;60.224;24.712;2023-12-29T13:04:52;9;8;
80643;PMS5003;70010;60.224;24.712;2023-12-29T13:07:18;6;6;
80643;PMS5003;70010;60.224;24.712;2023-12-29T13:09:43;8;8;
80643;PMS5003;70010;60.224;24.712;2023-12-29T13:12:09;10;8;
80643;PMS5003;70010;60.224;24.712;2023-12-29T13:14:34;9;6;
80643;PMS5003;70010;60.224;24.712;2023-12-29T13:17:04;7;7;
80643;PMS5003;70010;60.224;24.712;2023-12-29T13:19:25;8;7;
80643;PMS5003;70010;60.224;24.712;2023-12-29T13:21:51;11;9;
80643;PMS5003;70010;60.224;24.712;2023-12-29T13:24:16;7;7;
80643;PMS5003;70010;60.224;24.712;2023-12-29T13:26:41;13;8;
80643;PMS5003;70010;60.224;24.712;2023-12-29T13:29:06;9;8;
80643;PMS5003;70010;60.224;24.712;2023-12-29T13:31:32;7;7;
80643;PMS5003;70010;60.224;24.712;2023-12-29T13:33:57;9;9;
80643;PMS5003;70010;60.224;24.712;2023-12-29T13:36:23;8;5;
80643;PMS5003;70010;60.224;24.712;2023-12-29T13:38:50;9;8;
80643;PMS5003;70010;60.224;24.712;2023-12-29T13:41:13;4;4;
80643;PMS5003;70010;60.224;24.712;2023-12-29T13:43:39;7;7;
80643;PMS5003;70010;60.224;24.712;2023-12-29T13:46:04;7;7;
80643;PMS5003;70010;60.224;24.712;2023-12-29T13:48:29;7;7;
80643;PMS5003;70010;60.224;24.712;2023-12-29T13:50:55;9;8;
80643;PMS5003;70010;60.224;24.712;2023-12-29T13:53:20;6;6;
80643;PMS5003;70010;60.224;24.712;2023-12-29T13:55:45;8;7;
80643;PMS5003;70010;60.224;24.712;2023-12-29T13:58:11;7;5;
80643;PMS5003;70010;60.224;24.712;2023-12-29T14:00:37;5;5;
80643;PMS5003;70010;60.224;24.712;2023-12-29T14:03:05;9;5;
80643;PMS5003;70010;60.224;24.712;2023-12-29T14:05:28;8;6;
80643;PMS5003;70010;60.224;24.712;2023-12-29T14:07:53;5;5;
80643;PMS5003;70010;60.224;24.712;2023-12-29T14:10:18;6;6;
80643;PMS5003;70010;60.224;24.712;2023-12-29T14:12:43;8;6;
80643;PMS5003;70010;60.224;24.712;2023-12-29T14:15:09;5;5;
80643;PMS5003;70010;60.224;24.712;2023-12-29T14:17:34;5;5;
80643;PMS5003;70010;60.224;24.712;2023-12-29T14:19:59;4;4;
80643;PMS5003;70010;60.224;24.712;2023-12-29T14:22:25;5;5;
80643;PMS5003;70010;60.224;24.712;2023-12-29T14:27:16;5;5;
80643;PMS5003;70010;60.224;24.712;2023-12-29T14:29:41;5;4;
80643;PMS5003;70010;60.224;24.712;2023-12-29T14:32:07;5;5;
80643;PMS5003;70010;60.224;24.712;2023-12-29T14:34:32;3;3;
80643;PMS5003;70010;60.224;24.712;2023-12-29T14:36:57;4;4;
80643;PMS5003;70010;60.224;24.712;2023-12-29T14:39:22;7;5;
80643;PMS5003;70010;60.224;24.712;2023-12-29T14:41:48;5;5;
80643;PMS5003;70010;60.224;24.712;2023-12-29T14:44:13;4;4;
80643;PMS5003;70010;60.224;24.712;2023-12-29T14:46:39;5;4;
80643;PMS5003;70010;60.224;24.712;2023-12-29T14:49:04;4;4;
80643;PMS5003;70010;60.224;24.712;2023-12-29T14:51:29;5;5;
80643;PMS5003;70010;60.224;24.712;2023-12-29T14:53:54;4;4;
80643;PMS5003;70010;60.224;24.712;2023-12-29T14:56:20;4;4;
80643;PMS5003;70010;60.224;24.712;2023-12-29T14:58:46;4;4;
80643;PMS5003;70010;60.224;24.712;2023-12-29T15:01:11;4;4;
80643;PMS5003;70010;60.224;24.712;2023-12-29T15:03:37;5;4;
80643;PMS5003;70010;60.224;24.712;2023-12-29T15:06:03;5;5;
80643;PMS5003;70010;60.224;24.712;2023-12-29T15:08:28;4;4;
80643;PMS5003;70010;60.224;24.712;2023-12-29T15:10:53;5;3;
80643;PMS5003;70010;60.224;24.712;2023-12-29T15:13:18;3;3;
80643;PMS5003;70010;60.224;24.712;2023-12-29T15:15:44;2;2;
80643;PMS5003;70010;60.224;24.712;2023-12-29T15:18:09;3;3;
80643;PMS5003;70010;60.224;24.712;2023-12-29T15:20:34;3;3;
80643;PMS5003;70010;60.224;24.712;2023-12-29T15:23:00;4;3;
80643;PMS5003;70010;60.224;24.712;2023-12-29T15:25:25;3;3;
80643;PMS5003;70010;60.224;24.712;2023-12-29T15:27:50;3;3;
80643;PMS5003;70010;60.224;24.712;2023-12-29T15:30:16;2;2;
80643;PMS5003;70010;60.224;24.712;2023-12-29T15:32:41;3;3;
80643;PMS5003;70010;60.224;24.712;2023-12-29T15:35:07;1;1;
80643;PMS5003;70010;60.224;24.712;2023-12-29T15:37:32;4;4;
80643;PMS5003;70010;60.224;24.712;2023-12-29T15:39:57;3;3;
80643;PMS5003;70010;60.224;24.712;2023-12-29T15:42:22;6;5;
80643;PMS5003;70010;60.224;24.712;2023-12-29T15:44:48;6;4;
80643;PMS5003;70010;60.224;24.712;2023-12-29T15:47:13;6;3;
80643;PMS5003;70010;60.224;24.712;2023-12-29T15:49:38;5;3;
80643;PMS5003;70010;60.224;24.712;2023-12-29T15:52:05;5;4;
80643;PMS5003;70010;60.224;24.712;2023-12-29T15:54:29;3;3;
80643;PMS5003;70010;60.224;24.712;2023-12-29T15:56:54;4;4;
80643;PMS5003;70010;60.224;24.712;2023-12-29T15:59:20;4;4;
80643;PMS5003;70010;60.224;24.712;2023-12-29T16:01:45;7;5;
80643;PMS5003;70010;60.224;24.712;2023-12-29T16:04:10;5;4;
80643;PMS5003;70010;60.224;24.712;2023-12-29T16:06:36;4;4;
80643;PMS5003;70010;60.224;24.712;2023-12-29T16:09:01;5;4;
80643;PMS5003;70010;60.224;24.712;2023-12-29T16:11:27;5;4;
80643;PMS5003;70010;60.224;24.712;2023-12-29T16:13:52;5;4;
80643;PMS5003;70010;60.224;24.712;2023-12-29T16:16:17;6;4;
80643;PMS5003;70010;60.224;24.712;2023-12-29T16:18:43;5;3;
80643;PMS5003;70010;60.224;24.712;2023-12-29T16:21:08;4;2;
80643;PMS5003;70010;60.224;24.712;2023-12-29T16:23:34;2;2;
80643;PMS5003;70010;60.224;24.712;2023-12-29T16:26:04;4;4;
80643;PMS5003;70010;60.224;24.712;2023-12-29T16:28:24;5;4;
80643;PMS5003;70010;60.224;24.712;2023-12-29T16:30:50;5;5;
80643;PMS5003;70010;60.224;24.712;2023-12-29T16:33:15;4;4;
80643;PMS5003;70010;60.224;24.712;2023-12-29T16:35:41;5;5;